Time;durP1;ratioP1;P1;durP2;ratioP2;P2;SDS_P1;SDS_P2;PMS_P1;PMS_P2;Temp;Humidity;BMP_temperature;BMP_pressure;BME280_temperature;BME280_humidity;BME280_pressure;Samples;Min_cycle;Max_cycle;Signal;HPM_P1;HPM_P2
2022/02/27 00:01:34;;;;;;;7.93;2.50;;;;;;;-2.29;84.08;101816.64;1639319;86;21063;-67
2022/02/27 00:04:00;;;;;;;5.57;2.10;;;;;;;-2.26;84.14;101807.80;1686842;83;20985;-67
2022/02/27 00:06:27;;;;;;;5.67;2.70;;;;;;;-2.25;84.18;101812.09;1667788;84;20991;-67
2022/02/27 00:08:54;;;;;;;8.03;2.87;;;;;;;-2.25;84.16;101806.56;1649803;85;21676;-67
2022/02/27 00:11:21;;;;;;;8.30;3.00;;;;;;;-2.27;83.98;101804.75;1650721;85;20989;-67
2022/02/27 00:13:47;;;;;;;7.08;1.92;;;;;;;-2.28;84.01;101813.26;1666635;85;21035;-67
2022/02/27 00:16:14;;;;;;;7.87;2.47;;;;;;;-2.27;84.33;101803.48;1653377;85;21070;-67
2022/02/27 00:18:41;;;;;;;6.13;2.60;;;;;;;-2.26;84.25;101803.97;1668716;84;21095;-68
2022/02/27 00:21:07;;;;;;;7.57;2.50;;;;;;;-2.29;84.16;101803.84;1667227;84;21314;-68
2022/02/27 00:23:34;;;;;;;6.67;1.80;;;;;;;-2.31;84.14;101801.63;1667685;84;21032;-68
2022/02/27 00:26:00;;;;;;;10.15;2.90;;;;;;;-2.33;84.16;101801.97;1648715;85;21535;-67
2022/02/27 00:28:27;;;;;;;10.23;2.77;;;;;;;-2.32;84.24;101803.73;1666449;84;21093;-67
2022/02/27 00:30:54;;;;;;;5.73;1.87;;;;;;;-2.36;84.19;101801.85;1647875;85;21646;-67
2022/02/27 00:33:21;;;;;;;8.33;2.20;;;;;;;-2.36;84.50;101802.72;1646164;84;21399;-67
2022/02/27 00:35:47;;;;;;;11.57;2.52;;;;;;;-2.34;84.48;101804.08;1666370;85;21025;-67
2022/02/27 00:38:14;;;;;;;7.80;1.77;;;;;;;-2.37;84.37;101800.13;1668640;84;21598;-67
2022/02/27 00:40:41;;;;;;;7.83;1.82;;;;;;;-2.35;84.51;101795.91;1658357;84;21021;-67
2022/02/27 00:43:07;;;;;;;4.70;1.70;;;;;;;-2.37;84.41;101800.13;1657879;85;20980;-67
2022/02/27 00:45:34;;;;;;;8.03;2.03;;;;;;;-2.38;84.39;101800.91;1665683;85;21637;-67
2022/02/27 00:48:01;;;;;;;11.22;1.52;;;;;;;-2.40;84.42;101806.41;1634054;86;21098;-67
2022/02/27 00:50:28;;;;;;;8.50;2.27;;;;;;;-2.40;84.58;101805.12;1695806;84;21050;-67
2022/02/27 00:52:54;;;;;;;9.75;2.47;;;;;;;-2.41;84.47;101800.80;1695880;83;21135;-67
2022/02/27 00:55:22;;;;;;;9.30;2.62;;;;;;;-2.49;84.36;101800.11;1697706;83;20980;-67
2022/02/27 00:57:48;;;;;;;5.72;2.05;;;;;;;-2.53;84.42;101807.19;1696217;83;21039;-67
2022/02/27 01:00:16;;;;;;;5.30;1.75;;;;;;;-2.55;84.53;101813.05;1697692;84;21515;-67
2022/02/27 01:02:43;;;;;;;8.43;2.70;;;;;;;-2.53;84.70;101805.91;1695273;84;20946;-67
2022/02/27 01:05:10;;;;;;;7.33;2.90;;;;;;;-2.54;84.63;101808.00;1691893;83;21143;-67
2022/02/27 01:07:37;;;;;;;7.78;2.37;;;;;;;-2.57;84.68;101809.16;1691354;84;20923;-67
2022/02/27 01:10:06;;;;;;;9.00;2.87;;;;;;;-2.62;84.60;101806.83;1694625;83;21317;-67
2022/02/27 01:12:32;;;;;;;7.85;2.52;;;;;;;-2.64;84.67;101811.00;1697983;84;21286;-67
2022/02/27 01:14:59;;;;;;;10.83;2.20;;;;;;;-2.65;84.73;101807.98;1695627;84;21047;-67
2022/02/27 01:17:26;;;;;;;7.60;2.20;;;;;;;-2.64;84.86;101808.45;1698345;83;20949;-67
2022/02/27 01:19:52;;;;;;;8.47;2.40;;;;;;;-2.63;84.85;101799.98;1697768;83;21564;-67
2022/02/27 01:22:19;;;;;;;5.53;1.90;;;;;;;-2.66;84.77;101807.53;1695006;84;22047;-67
2022/02/27 01:24:46;;;;;;;5.05;2.08;;;;;;;-2.68;84.73;101810.84;1694363;83;21012;-67
2022/02/27 01:27:13;;;;;;;8.57;3.17;;;;;;;-2.71;84.81;101809.03;1656216;86;21107;-67
2022/02/27 01:29:39;;;;;;;4.30;1.73;;;;;;;-2.75;84.92;101809.70;1649009;85;21060;-67
2022/02/27 01:32:07;;;;;;;8.40;2.72;;;;;;;-2.75;84.92;101809.70;1656829;85;21430;-67
2022/02/27 01:34:34;;;;;;;5.65;2.55;;;;;;;-2.78;84.91;101818.12;1652083;85;21720;-67
2022/02/27 01:37:01;;;;;;;10.83;2.73;;;;;;;-2.82;84.99;101802.61;1641364;85;20930;-67
2022/02/27 01:39:28;;;;;;;7.08;1.87;;;;;;;-2.88;84.76;101804.92;1654284;85;21068;-67
2022/02/27 01:41:54;;;;;;;6.17;2.00;;;;;;;-2.94;84.99;101802.58;1631328;86;21697;-67
2022/02/27 01:44:21;;;;;;;7.53;2.20;;;;;;;-2.94;85.10;101808.07;1670902;84;21068;-67
2022/02/27 01:47:01;;;;;;;6.45;1.55;;;;;;;-2.99;85.05;101802.80;1674387;84;21557;-67
2022/02/27 01:49:28;;;;;;;5.58;1.80;;;;;;;-2.98;85.16;101807.08;1675710;84;20953;-67
2022/02/27 01:51:55;;;;;;;4.22;1.90;;;;;;;-3.03;85.08;101806.02;1671518;84;21566;-67
2022/02/27 01:54:23;;;;;;;3.90;2.03;;;;;;;-3.04;85.20;101808.11;1634735;87;21035;-67
2022/02/27 01:56:51;;;;;;;6.12;2.37;;;;;;;-3.11;84.94;101809.93;1672796;84;22285;-67
2022/02/27 01:59:18;;;;;;;5.22;2.50;;;;;;;-3.16;84.98;101803.78;1670186;84;21186;-67
2022/02/27 02:01:45;;;;;;;6.87;2.72;;;;;;;-3.22;84.97;101808.61;1672416;84;20955;-67
2022/02/27 02:04:11;;;;;;;9.13;2.72;;;;;;;-3.29;84.91;101806.63;1670368;84;21547;-67
2022/02/27 02:06:38;;;;;;;8.03;2.73;;;;;;;-3.34;84.98;101808.10;1673245;84;20968;-67
2022/02/27 02:09:05;;;;;;;15.13;2.80;;;;;;;-3.38;85.05;101815.64;1671553;84;21018;-67
2022/02/27 02:11:37;;;;;;;6.42;2.27;;;;;;;-3.38;85.17;101813.08;1673611;84;21131;-68
2022/02/27 02:14:05;;;;;;;7.60;2.17;;;;;;;-3.37;85.33;101809.70;1674935;84;21006;-68
2022/02/27 02:16:46;;;;;;;10.70;2.70;;;;;;;-3.33;85.52;101813.66;1672323;84;21617;-68
2022/02/27 02:19:16;;;;;;;6.28;2.62;;;;;;;-3.33;85.39;101818.40;1671020;84;21105;-68
2022/02/27 02:21:46;;;;;;;5.45;2.25;;;;;;;-3.35;85.34;101819.14;1672927;84;21633;-68
2022/02/27 02:24:15;;;;;;;6.35;2.40;;;;;;;-3.42;85.30;101818.88;1674926;84;21627;-68
2022/02/27 02:26:43;;;;;;;5.85;2.20;;;;;;;-3.46;85.27;101818.67;1672299;84;20995;-69
2022/02/27 02:29:13;;;;;;;10.28;2.80;;;;;;;-3.53;85.18;101813.68;1640924;86;21104;-68
2022/02/27 02:31:41;;;;;;;8.85;3.08;;;;;;;-3.56;85.30;101817.38;1670376;84;21547;-68
2022/02/27 02:34:12;;;;;;;10.20;7.50;;;;;;;-3.62;85.29;101813.29;1677655;84;21561;-68
2022/02/27 02:36:40;;;;;;;8.08;4.72;;;;;;;-3.64;85.39;101826.38;1696824;83;21144;-68
2022/02/27 02:39:09;;;;;;;15.60;4.60;;;;;;;-3.66;85.46;101821.64;1662457;84;21703;-68
2022/02/27 02:41:37;;;;;;;9.25;3.30;;;;;;;-3.65;85.62;101816.98;1660429;84;21034;-68
2022/02/27 02:44:06;;;;;;;5.17;2.27;;;;;;;-3.66;85.75;101822.91;1660134;84;20957;-68
2022/02/27 02:46:35;;;;;;;7.37;4.90;;;;;;;-3.65;85.72;101829.75;1666106;85;20944;-68
2022/02/27 02:49:03;;;;;;;9.90;3.33;;;;;;;-3.64;85.77;101841.70;1636566;86;21474;-68
2022/02/27 02:51:30;;;;;;;13.55;5.58;;;;;;;-3.63;85.91;101820.48;1625058;86;21028;-68
2022/02/27 02:53:57;;;;;;;11.40;5.90;;;;;;;-3.59;85.88;101823.63;1693150;83;20957;-68
2022/02/27 02:56:23;;;;;;;10.30;5.37;;;;;;;-3.63;85.59;101828.15;1691699;83;20936;-68
2022/02/27 02:58:50;;;;;;;15.70;6.00;;;;;;;-3.69;85.59;101837.69;1695603;84;21294;-67
2022/02/27 03:01:20;;;;;;;18.92;8.35;;;;;;;-3.71;85.70;101834.59;1664286;85;22291;-68
2022/02/27 03:04:41;;;;;;;15.32;6.05;;;;;;;-3.75;85.51;101848.01;1806038;77;22715;-66
2022/02/27 03:07:10;;;;;;;14.50;7.40;;;;;;;-3.85;85.75;101848.88;1810232;78;20935;-66
2022/02/27 03:09:38;;;;;;;8.48;4.12;;;;;;;-3.86;85.82;101845.87;1826747;78;21107;-67
2022/02/27 03:12:06;;;;;;;10.30;4.58;;;;;;;-3.88;85.80;101844.92;1790900;78;21041;-68
2022/02/27 03:14:33;;;;;;;10.88;4.55;;;;;;;-3.89;85.84;101835.52;1822062;78;20910;-68
2022/02/27 03:16:59;;;;;;;10.82;3.47;;;;;;;-3.88;85.92;101832.16;1826957;78;21059;-67
2022/02/27 03:19:26;;;;;;;5.55;3.17;;;;;;;-3.85;86.06;101838.67;1821515;78;21617;-68
2022/02/27 03:21:53;;;;;;;9.37;3.07;;;;;;;-3.76;86.23;101841.17;1823007;78;21068;-67
2022/02/27 03:24:20;;;;;;;9.15;3.22;;;;;;;-3.69;86.23;101838.10;1822825;77;20960;-67
2022/02/27 03:26:46;;;;;;;10.10;3.70;;;;;;;-3.62;86.30;101836.27;1824569;78;20890;-67
2022/02/27 03:29:13;;;;;;;7.23;3.00;;;;;;;-3.56;86.31;101832.70;1824731;78;21093;-68
2022/02/27 03:31:40;;;;;;;5.80;3.30;;;;;;;-3.55;86.16;101844.69;1826852;78;21647;-67
2022/02/27 03:34:06;;;;;;;8.23;4.65;;;;;;;-3.54;86.14;101843.87;1813137;77;21187;-67
2022/02/27 03:36:33;;;;;;;6.67;3.10;;;;;;;-3.49;86.10;101842.39;1824254;78;21018;-67
2022/02/27 03:39:00;;;;;;;6.53;2.83;;;;;;;-3.50;86.00;101840.66;1824074;77;21094;-67
2022/02/27 03:41:26;;;;;;;11.63;4.07;;;;;;;-3.48;86.10;101833.91;1787935;78;20994;-67
2022/02/27 03:43:53;;;;;;;7.17;2.50;;;;;;;-3.48;86.10;101833.91;1815135;77;21028;-67
2022/02/27 03:46:20;;;;;;;7.13;2.63;;;;;;;-3.47;86.12;101835.68;1819579;78;21577;-67
2022/02/27 03:48:46;;;;;;;8.30;2.60;;;;;;;-3.44;86.17;101828.15;1827175;78;21550;-67
2022/02/27 03:51:13;;;;;;;5.77;2.93;;;;;;;-3.41;86.24;101830.83;1812398;77;20969;-67
2022/02/27 03:53:40;;;;;;;6.40;2.73;;;;;;;-3.38;86.35;101830.97;1816600;77;21083;-67
2022/02/27 03:56:06;;;;;;;7.20;3.17;;;;;;;-3.38;86.27;101830.97;1826423;77;21581;-67
2022/02/27 03:58:33;;;;;;;8.40;2.95;;;;;;;-3.40;86.23;101834.25;1816532;77;21409;-67
2022/02/27 04:00:59;;;;;;;6.83;2.33;;;;;;;-3.43;86.14;101840.10;1812965;78;20954;-67
2022/02/27 04:03:26;;;;;;;9.53;3.10;;;;;;;-3.43;86.22;101841.79;1808988;78;20929;-68
2022/02/27 04:05:53;;;;;;;6.03;2.90;;;;;;;-3.45;86.24;101841.70;1821877;78;20903;-67
2022/02/27 04:08:19;;;;;;;6.20;2.45;;;;;;;-3.48;86.14;101854.34;1812321;78;22259;-67
2022/02/27 04:10:46;;;;;;;16.53;4.70;;;;;;;-3.52;86.17;101849.92;1816556;77;22216;-67
2022/02/27 04:13:12;;;;;;;12.50;5.65;;;;;;;-3.55;86.19;101857.45;1817182;78;20900;-67
2022/02/27 04:15:39;;;;;;;13.15;3.90;;;;;;;-3.61;86.06;101867.41;1822258;77;21469;-67
2022/02/27 04:18:06;;;;;;;9.40;3.98;;;;;;;-3.66;86.11;101868.88;1808707;77;20905;-67
2022/02/27 04:20:32;;;;;;;7.47;2.73;;;;;;;-3.72;86.11;101866.05;1816356;77;21659;-67
2022/02/27 04:23:00;;;;;;;10.97;2.80;;;;;;;-3.75;86.17;101858.22;1818743;78;21925;-67
2022/02/27 04:25:28;;;;;;;5.35;2.02;;;;;;;-3.78;86.25;101873.41;1820182;78;20954;-67
2022/02/27 04:27:56;;;;;;;7.00;3.90;;;;;;;-3.79;86.28;101867.84;1811283;78;21556;-67
2022/02/27 04:30:25;;;;;;;9.55;4.45;;;;;;;-3.82;86.28;101867.30;1819561;77;21717;-67
2022/02/27 04:32:52;;;;;;;9.75;4.97;;;;;;;-3.86;86.22;101868.84;1822107;78;21074;-67
2022/02/27 04:35:19;;;;;;;6.85;2.92;;;;;;;-3.90;86.24;101859.28;1812370;78;21167;-67
2022/02/27 04:37:45;;;;;;;14.20;4.73;;;;;;;-3.91;86.27;101860.50;1818328;77;21033;-67
2022/02/27 04:40:13;;;;;;;14.57;6.13;;;;;;;-3.94;86.33;101859.09;1820938;77;21015;-67
2022/02/27 04:42:41;;;;;;;12.70;5.15;;;;;;;-4.02;86.14;101852.35;1820412;78;21054;-67
2022/02/27 04:45:11;;;;;;;15.00;5.67;;;;;;;-4.09;86.10;101861.78;1820221;78;21038;-67
2022/02/27 04:47:38;;;;;;;14.18;6.33;;;;;;;-4.13;86.13;101863.33;1820788;77;21915;-67
2022/02/27 04:50:06;;;;;;;13.65;5.95;;;;;;;-4.18;86.17;101862.64;1819294;78;20951;-67
2022/02/27 04:52:33;;;;;;;18.80;6.17;;;;;;;-4.22;86.23;101859.49;1817507;78;20981;-67
2022/02/27 04:55:00;;;;;;;13.48;5.05;;;;;;;-4.25;86.34;101865.31;1823652;77;21607;-67
2022/02/27 04:57:27;;;;;;;11.25;4.10;;;;;;;-4.27;86.44;101867.78;1811187;78;20936;-67
2022/02/27 04:59:54;;;;;;;8.93;3.30;;;;;;;-4.25;86.51;101871.70;1814035;77;21051;-67
2022/02/27 05:02:21;;;;;;;6.15;2.40;;;;;;;-4.29;86.46;101874.48;1819766;77;21236;-67
2022/02/27 05:04:48;;;;;;;;;;;;;;;-4.29;86.54;101881.27;1825629;77;21514;-67
2022/02/27 05:07:15;;;;;;;6.10;2.07;;;;;;;-4.33;86.55;101877.70;1806206;77;20495;-67
2022/02/27 05:09:41;;;;;;;6.22;2.37;;;;;;;-4.31;86.72;101876.11;1818147;77;20957;-67
2022/02/27 05:12:09;;;;;;;8.73;3.00;;;;;;;-4.31;86.68;101881.20;1817209;77;21251;-67
2022/02/27 05:14:35;;;;;;;7.53;3.08;;;;;;;-4.31;86.66;101881.20;1816195;78;20998;-67
2022/02/27 05:17:03;;;;;;;9.60;3.47;;;;;;;-4.35;86.51;101890.77;1825413;77;20944;-66
2022/02/27 05:19:29;;;;;;;6.80;2.70;;;;;;;-4.33;86.77;101885.35;1819541;77;20961;-67
2022/02/27 05:21:56;;;;;;;5.20;2.67;;;;;;;-4.33;86.74;101893.00;1826842;77;20969;-67
2022/02/27 05:24:23;;;;;;;7.47;3.00;;;;;;;-4.37;86.56;101886.02;1817764;77;21083;-67
2022/02/27 05:26:49;;;;;;;5.07;2.80;;;;;;;-4.39;86.57;101887.61;1814081;78;21133;-68
2022/02/27 05:29:16;;;;;;;5.73;2.50;;;;;;;-4.37;86.70;101902.97;1814486;78;20917;-68
2022/02/27 05:31:43;;;;;;;4.70;2.12;;;;;;;-4.34;86.87;101904.02;1814315;78;21570;-67
2022/02/27 05:34:11;;;;;;;6.70;1.90;;;;;;;-4.25;87.05;101907.81;1813420;77;20985;-67
2022/02/27 05:36:38;;;;;;;6.72;2.60;;;;;;;-4.19;87.13;101908.09;1810457;78;21237;-67
2022/02/27 05:39:06;;;;;;;10.05;3.12;;;;;;;-4.15;87.01;101918.91;1813569;78;21123;-68
2022/02/27 05:41:33;;;;;;;7.85;2.80;;;;;;;-4.15;86.79;101917.63;1818957;78;20989;-67
2022/02/27 05:43:59;;;;;;;7.58;3.15;;;;;;;-4.16;86.78;101918.04;1812495;78;20918;-67
2022/02/27 05:46:26;;;;;;;11.12;4.70;;;;;;;-4.14;86.83;101921.95;1812644;77;20938;-67
2022/02/27 05:48:53;;;;;;;10.72;5.28;;;;;;;-4.15;86.69;101927.84;1814755;78;21564;-67
2022/02/27 05:51:20;;;;;;;14.37;5.73;;;;;;;-4.22;86.45;101928.36;1820179;78;21089;-67
2022/02/27 05:53:46;;;;;;;14.60;6.60;;;;;;;-4.31;86.34;101939.88;1797175;78;20925;-68
2022/02/27 05:56:14;;;;;;;16.97;5.78;;;;;;;-4.36;86.46;101938.77;1817534;78;20978;-68
2022/02/27 05:58:40;;;;;;;13.03;5.47;;;;;;;-4.38;86.42;101945.45;1820003;78;21701;-67
2022/02/27 06:01:07;;;;;;;13.70;6.10;;;;;;;-4.40;86.40;101941.95;1814167;78;21514;-68
2022/02/27 06:03:34;;;;;;;10.77;6.37;;;;;;;-4.37;86.58;101940.86;1814613;77;21115;-70
2022/02/27 06:06:00;;;;;;;14.25;6.97;;;;;;;-4.30;86.78;101939.05;1814181;78;20987;-67
2022/02/27 06:08:33;;;;;;;13.37;6.70;;;;;;;-3.98;87.36;101939.72;1808914;77;20998;-68
2022/02/27 06:11:00;;;;;;;11.00;5.85;;;;;;;-3.40;87.75;101934.74;1820876;78;21005;-67
2022/02/27 06:13:26;;;;;;;15.67;6.83;;;;;;;-2.71;87.78;101942.00;1823243;78;21089;-68
2022/02/27 06:15:54;;;;;;;11.77;5.83;;;;;;;-2.19;87.13;101940.29;1816877;78;20998;-68
2022/02/27 06:18:20;;;;;;;;;;;;;;;-1.73;86.48;101939.97;1817781;78;20956;-68
2022/02/27 06:20:47;;;;;;;12.00;4.25;;;;;;;-1.32;86.14;101935.08;1815136;77;20117;-67
2022/02/27 06:23:16;;;;;;;13.58;5.00;;;;;;;-1.02;85.36;101937.02;1818882;77;20934;-68
2022/02/27 06:25:44;;;;;;;10.78;4.58;;;;;;;-0.87;84.90;101940.11;1817299;77;22309;-66
2022/02/27 06:28:11;;;;;;;;;;;;;;;-0.76;84.61;101945.20;1797468;78;21024;-67
2022/02/27 06:30:40;;;;;;;9.48;4.20;;;;;;;-0.56;84.59;101948.47;1704780;79;20188;-68
2022/02/27 06:33:06;;;;;;;10.10;4.60;;;;;;;-0.30;85.09;101945.89;1690988;83;21659;-67
2022/02/27 06:35:33;;;;;;;10.98;4.72;;;;;;;-0.27;84.40;101946.85;1691084;83;21098;-67
2022/02/27 06:38:00;;;;;;;10.37;4.90;;;;;;;-0.07;84.55;101941.48;1693655;83;21510;-67
2022/02/27 06:40:27;;;;;;;11.53;4.60;;;;;;;0.16;84.19;101948.20;1691715;83;21030;-68
2022/02/27 06:42:53;;;;;;;8.53;3.93;;;;;;;0.50;84.54;101946.65;1678007;83;20983;-70
2022/02/27 06:45:20;;;;;;;11.20;5.77;;;;;;;0.89;84.64;101943.48;1697148;83;21091;-69
2022/02/27 06:47:47;;;;;;;11.68;5.78;;;;;;;1.19;83.90;101942.59;1697160;83;20965;-70
2022/02/27 06:50:14;;;;;;;15.20;5.17;;;;;;;1.55;84.37;101943.53;1696948;83;21216;-69
2022/02/27 06:52:41;;;;;;;15.78;4.62;;;;;;;1.92;84.30;101937.98;1697722;83;20988;-70
2022/02/27 06:55:09;;;;;;;10.40;5.45;;;;;;;2.25;84.02;101930.58;1697541;83;29079;-69
2022/02/27 06:57:36;;;;;;;8.53;4.97;;;;;;;2.51;84.28;101937.58;1695244;83;20976;-71
2022/02/27 07:00:06;;;;;;;10.83;6.87;;;;;;;2.57;83.52;101948.45;1694912;83;21042;-71
2022/02/27 07:02:34;;;;;;;12.65;5.60;;;;;;;2.50;82.71;101944.02;1708233;83;21124;-71
2022/02/27 07:05:04;;;;;;;12.85;6.97;;;;;;;2.54;82.42;101941.52;1684100;84;21063;-75
2022/02/27 07:07:31;;;;;;;11.05;6.60;;;;;;;2.52;82.40;101946.19;1681158;85;21101;-72
2022/02/27 07:10:00;;;;;;;10.95;5.12;;;;;;;2.83;83.84;101940.84;1686406;83;21024;-70
2022/02/27 07:12:30;;;;;;;8.78;5.17;;;;;;;3.31;83.98;101945.62;1681330;83;21020;-71
2022/02/27 07:14:57;;;;;;;9.95;5.33;;;;;;;3.65;83.98;101941.90;1669455;83;21087;-71
2022/02/27 07:17:25;;;;;;;9.23;5.05;;;;;;;3.88;83.52;101951.73;1681804;83;20980;-69
2022/02/27 07:19:53;;;;;;;8.25;4.80;;;;;;;4.10;83.34;101948.64;1665472;85;21022;-69
2022/02/27 07:22:20;;;;;;;;;;;;;;;4.11;82.67;101946.91;1712354;83;21027;-69
2022/02/27 07:24:47;;;;;;;;;;;;;;;3.99;82.68;101947.60;1694418;83;20148;-70
2022/02/27 07:27:16;;;;;;;9.93;5.90;;;;;;;3.84;83.10;101955.09;1702146;83;21070;-70
2022/02/27 07:29:43;;;;;;;13.40;8.75;;;;;;;3.73;83.62;101948.06;1684985;83;20956;-70
2022/02/27 07:32:14;;;;;;;9.90;7.20;;;;;;;3.60;83.67;101951.28;1701635;83;21086;-70
2022/02/27 07:34:42;;;;;;;17.00;11.38;;;;;;;3.43;84.21;101955.29;1697512;83;21002;-70
2022/02/27 07:37:09;;;;;;;26.23;15.93;;;;;;;2.98;84.34;101946.71;1650851;84;21057;-70
2022/02/27 07:39:36;;;;;;;28.10;19.73;;;;;;;2.76;85.13;101951.86;1685251;85;21128;-69
2022/02/27 07:42:04;;;;;;;30.48;19.67;;;;;;;2.74;85.65;101954.82;1686368;83;20980;-69
2022/02/27 07:44:30;;;;;;;35.83;21.90;;;;;;;2.72;86.03;101955.63;1678961;83;21008;-69
2022/02/27 07:46:57;;;;;;;17.90;6.07;;;;;;;2.68;86.13;101948.25;1690092;84;21539;-70
2022/02/27 07:49:24;;;;;;;13.15;6.33;;;;;;;2.54;86.30;101943.23;1695489;83;25008;-70
2022/02/27 07:51:52;;;;;;;15.78;6.12;;;;;;;2.45;86.46;101955.08;1706322;83;21221;-70
2022/02/27 07:54:19;;;;;;;12.47;4.47;;;;;;;2.30;86.43;101954.77;1704509;83;20988;-70
2022/02/27 07:56:46;;;;;;;10.48;2.72;;;;;;;2.18;86.43;101951.89;1695339;83;20961;-68
2022/02/27 07:59:13;;;;;;;7.10;2.15;;;;;;;2.08;86.57;101965.42;1698345;83;21073;-70
2022/02/27 08:01:40;;;;;;;4.37;1.72;;;;;;;1.94;86.30;101963.38;1695751;83;21083;-67
2022/02/27 08:04:07;;;;;;;3.58;1.50;;;;;;;1.84;86.47;101957.96;1694038;83;22031;-67
2022/02/27 08:06:35;;;;;;;5.47;2.47;;;;;;;1.76;86.40;101959.05;1696144;83;20993;-68
2022/02/27 08:09:03;;;;;;;4.37;1.85;;;;;;;1.69;86.42;101963.62;1700028;83;20996;-67
2022/02/27 08:11:31;;;;;;;2.90;1.22;;;;;;;1.63;86.40;101954.45;1696207;82;21066;-67
2022/02/27 08:13:58;;;;;;;3.42;1.50;;;;;;;1.58;86.29;101958.19;1683480;84;21119;-67
2022/02/27 08:16:25;;;;;;;4.60;1.60;;;;;;;1.56;86.33;101963.28;1695441;83;21117;-69
2022/02/27 08:18:52;;;;;;;3.58;1.25;;;;;;;1.53;86.27;101955.48;1696134;83;21611;-68
2022/02/27 08:21:18;;;;;;;4.60;1.65;;;;;;;1.51;86.11;101957.17;1681135;83;21033;-68
2022/02/27 08:23:45;;;;;;;4.05;2.05;;;;;;;1.49;86.06;101958.83;1691671;83;20993;-68
2022/02/27 08:26:12;;;;;;;4.12;1.35;;;;;;;1.48;85.99;101958.78;1695465;83;21072;-67
2022/02/27 08:28:39;;;;;;;11.03;1.77;;;;;;;1.49;85.94;101952.39;1682737;85;22471;-67
2022/02/27 08:31:06;;;;;;;5.30;2.15;;;;;;;1.46;85.67;101950.17;1723994;81;20980;-66
2022/02/27 08:33:36;;;;;;;4.50;1.30;;;;;;;1.46;85.68;101956.60;1709267;82;21160;-66
2022/02/27 08:36:04;;;;;;;6.58;1.55;;;;;;;1.48;85.70;101949.34;1740057;82;21025;-69
2022/02/27 08:38:31;;;;;;;4.03;1.20;;;;;;;1.48;85.55;101944.20;1738871;82;21019;-67
2022/02/27 08:40:58;;;;;;;6.80;1.55;;;;;;;1.48;85.47;101939.05;1744953;81;21138;-68
2022/02/27 08:43:25;;;;;;;4.87;1.53;;;;;;;1.52;85.61;101942.17;1740942;82;21053;-67
2022/02/27 08:45:52;;;;;;;5.45;1.42;;;;;;;1.52;85.25;101956.33;1740069;82;27026;-68
2022/02/27 08:48:19;;;;;;;6.17;1.27;;;;;;;1.50;85.17;101947.69;1736217;82;21646;-68
2022/02/27 08:50:47;;;;;;;4.87;1.87;;;;;;;1.51;85.25;101948.16;1740665;82;20942;-68
2022/02/27 08:53:14;;;;;;;2.85;1.50;;;;;;;1.59;85.35;101934.17;1739236;81;21253;-67
2022/02/27 08:55:41;;;;;;;6.20;1.27;;;;;;;1.61;85.16;101929.08;1740536;82;20977;-68
2022/02/27 08:58:08;;;;;;;3.80;1.32;;;;;;;1.62;85.05;101930.38;1740402;82;21063;-68
2022/02/27 09:00:37;;;;;;;3.60;1.07;;;;;;;1.66;85.02;101928.35;1740141;82;21698;-68
2022/02/27 09:03:04;;;;;;;6.08;1.62;;;;;;;1.74;84.94;101933.70;1738375;81;21653;-68
2022/02/27 09:05:32;;;;;;;7.40;1.95;;;;;;;1.79;85.03;101930.80;1740988;82;21645;-68
2022/02/27 09:07:58;;;;;;;6.40;1.60;;;;;;;1.81;84.87;101935.57;1742464;81;21068;-68
2022/02/27 09:10:25;;;;;;;5.72;1.52;;;;;;;1.88;84.82;101928.45;1741074;81;21099;-67
2022/02/27 09:12:52;;;;;;;4.70;1.15;;;;;;;1.93;84.81;101923.00;1740876;82;21120;-68
2022/02/27 09:15:19;;;;;;;4.65;1.50;;;;;;;1.92;84.62;101914.80;1740207;81;21053;-69
2022/02/27 09:17:46;;;;;;;7.25;1.70;;;;;;;1.99;84.49;101917.98;1740692;82;21253;-68
2022/02/27 09:20:14;;;;;;;3.87;1.30;;;;;;;2.05;84.46;101926.70;1730307;81;20955;-68
2022/02/27 09:22:40;;;;;;;;;;;;;;;2.08;84.50;101917.32;1745513;80;21062;-67
2022/02/27 09:25:10;;;;;;;3.17;1.37;;;;;;;2.19;84.71;101926.16;1742156;80;20095;-68
2022/02/27 09:27:37;;;;;;;4.42;1.60;;;;;;;2.29;84.63;101923.78;1741092;80;20929;-68
2022/02/27 09:30:05;;;;;;;3.10;1.20;;;;;;;2.29;83.85;101924.64;1741849;80;21545;-67
2022/02/27 09:32:32;;;;;;;4.30;1.50;;;;;;;2.21;83.42;101922.31;1726659;81;21623;-67
2022/02/27 09:34:58;;;;;;;4.83;1.82;;;;;;;2.13;83.43;101927.71;1739360;82;20943;-68
2022/02/27 09:37:25;;;;;;;6.90;1.40;;;;;;;2.16;83.63;101920.08;1737204;82;21772;-68
2022/02/27 09:39:53;;;;;;;3.95;1.60;;;;;;;2.15;83.08;101911.87;1735179;82;20969;-67
2022/02/27 09:42:20;;;;;;;2.90;1.40;;;;;;;2.06;82.67;101918.12;1739211;81;21476;-68
2022/02/27 09:44:47;;;;;;;2.95;1.40;;;;;;;2.01;82.78;101926.59;1734810;81;21550;-67
2022/02/27 09:47:15;;;;;;;4.97;1.57;;;;;;;2.03;82.65;101928.36;1734671;81;20895;-67
2022/02/27 09:49:50;;;;;;;5.83;1.80;;;;;;;2.03;82.32;101932.22;1736571;81;21604;-67
2022/02/27 09:52:29;;;;;;;4.12;1.75;;;;;;;2.10;82.36;101927.64;1718762;82;20929;-68
2022/02/27 09:55:07;;;;;;;4.50;1.65;;;;;;;2.13;82.06;101930.29;1734394;81;21157;-66
2022/02/27 09:57:36;;;;;;;9.23;2.95;;;;;;;2.13;82.10;101928.61;1721727;81;21595;-68
2022/02/27 10:00:08;;;;;;;4.40;1.80;;;;;;;2.24;82.04;101937.84;1730952;82;21586;-68
2022/02/27 10:02:55;;;;;;;5.75;2.12;;;;;;;2.27;81.44;101935.36;1710051;81;21596;-68
2022/02/27 10:05:25;;;;;;;2.95;1.77;;;;;;;2.18;80.99;101941.58;1735414;82;21037;-69
2022/02/27 10:08:04;;;;;;;6.67;1.55;;;;;;;2.13;80.78;101937.63;1726310;81;21451;-67
2022/02/27 10:10:31;;;;;;;5.20;1.70;;;;;;;2.11;80.61;101942.30;1733294;81;21579;-68
2022/02/27 10:12:58;;;;;;;5.25;1.77;;;;;;;2.17;80.49;101943.71;1722175;81;21272;-68
2022/02/27 10:15:25;;;;;;;4.60;1.70;;;;;;;2.18;80.25;101935.13;1725200;81;21545;-68
2022/02/27 10:17:53;;;;;;;3.50;1.50;;;;;;;2.24;80.19;101935.27;1736112;81;21047;-68
2022/02/27 10:20:24;;;;;;;4.10;1.47;;;;;;;2.27;79.68;101934.08;1702223;81;21079;-68
2022/02/27 10:22:54;;;;;;;5.62;1.90;;;;;;;2.31;79.57;101938.45;1737823;81;21520;-68
2022/02/27 10:25:30;;;;;;;4.25;1.87;;;;;;;2.40;79.02;101936.06;1721784;81;21551;-68
2022/02/27 10:28:08;;;;;;;10.35;4.10;;;;;;;2.51;79.37;101938.87;1722438;81;22278;-68
2022/02/27 10:30:38;;;;;;;4.60;1.85;;;;;;;2.69;79.48;101932.82;1724355;81;20991;-68
2022/02/27 10:33:14;;;;;;;4.37;2.00;;;;;;;2.72;79.04;101933.30;1729456;81;21128;-68
2022/02/27 10:35:50;;;;;;;4.87;1.95;;;;;;;2.74;78.82;101936.77;1730409;81;20962;-68
2022/02/27 10:38:45;;;;;;;3.60;1.32;;;;;;;2.72;78.79;101935.88;1733761;81;21050;-66
2022/02/27 10:41:21;;;;;;;4.15;1.40;;;;;;;2.75;78.38;101941.11;1705530;83;21014;-68
2022/02/27 10:43:45;;;;;;;4.90;1.50;;;;;;;2.79;78.09;101936.44;1705923;82;21037;-68
2022/02/27 10:46:15;;;;;;;3.37;0.93;;;;;;;2.82;78.06;101937.79;1715570;82;23818;-67
2022/02/27 10:48:42;;;;;;;3.42;1.20;;;;;;;2.86;78.22;101939.61;1730684;81;20957;-67
2022/02/27 10:51:14;;;;;;;3.85;1.17;;;;;;;2.87;77.94;101942.63;1737239;81;20938;-67
2022/02/27 10:53:46;;;;;;;2.85;1.45;;;;;;;2.85;77.64;101931.82;1733680;81;21064;-67
2022/02/27 10:56:17;;;;;;;3.08;1.02;;;;;;;2.84;76.92;101937.84;1730315;82;21566;-67
2022/02/27 10:58:48;;;;;;;3.20;1.32;;;;;;;2.83;77.41;101925.75;1677627;84;22438;-68
2022/02/27 11:01:22;;;;;;;2.85;1.12;;;;;;;2.78;77.36;101933.42;1724576;82;21037;-67
2022/02/27 11:03:53;;;;;;;5.45;1.30;;;;;;;2.73;77.08;101933.74;1735516;81;21067;-67
2022/02/27 11:06:21;;;;;;;4.17;1.20;;;;;;;2.69;77.30;101933.25;1734627;81;21045;-68
2022/02/27 11:08:51;;;;;;;4.55;1.40;;;;;;;2.76;77.37;101940.25;1738429;81;20950;-67
2022/02/27 11:11:20;;;;;;;5.35;1.57;;;;;;;2.84;77.47;101930.95;1738051;82;21539;-67
2022/02/27 11:13:47;;;;;;;3.62;1.27;;;;;;;2.90;77.26;101928.92;1731123;81;21015;-67
2022/02/27 11:16:15;;;;;;;3.05;0.75;;;;;;;2.93;77.15;101928.11;1729531;81;21013;-68
2022/02/27 11:18:44;;;;;;;2.42;1.10;;;;;;;3.05;77.36;101927.05;1729792;81;21255;-67
2022/02/27 11:21:11;;;;;;;3.08;1.10;;;;;;;3.14;77.09;101924.66;1734809;81;21082;-67
2022/02/27 11:23:44;;;;;;;3.75;1.07;;;;;;;3.19;76.50;101924.72;1720072;81;21301;-67
2022/02/27 11:26:10;;;;;;;3.67;1.12;;;;;;;3.19;76.67;101914.39;1732222;82;20950;-67
2022/02/27 11:28:40;;;;;;;4.55;1.07;;;;;;;3.19;76.67;101917.84;1736255;81;21029;-67
2022/02/27 11:31:08;;;;;;;2.45;0.90;;;;;;;3.19;75.44;101925.58;1740452;81;21037;-67